createdAt,value
2019-03-29T00:00:34.002Z,68.48
2019-03-29T00:03:02.407Z,68.79
2019-03-29T00:05:30.796Z,68.64
2019-03-29T00:07:59.190Z,68.45
2019-03-29T00:10:27.575Z,68.47
2019-03-29T00:12:57.026Z,68.69
2019-03-29T00:15:25.439Z,68.90
2019-03-29T00:17:53.872Z,68.76
2019-03-29T00:20:22.261Z,68.86
2019-03-29T00:22:50.650Z,68.75
2019-03-29T00:25:19.045Z,69.05
2019-03-29T00:27:47.440Z,69.25
2019-03-29T00:30:15.830Z,69.43
2019-03-29T00:32:44.229Z,69.76
2019-03-29T00:35:12.962Z,69.80
2019-03-29T00:37:52.863Z,69.88
2019-03-29T00:40:11.642Z,70.14
2019-03-29T00:42:40.027Z,70.24
2019-03-29T00:45:08.509Z,70.39
2019-03-29T00:47:36.917Z,70.76
2019-03-29T00:50:07.339Z,70.70
2019-03-29T00:52:35.695Z,70.92
2019-03-29T00:55:04.855Z,70.97
2019-03-29T00:57:33.273Z,71.29
2019-03-29T01:00:01.686Z,71.57
2019-03-29T01:02:30.075Z,71.79
2019-03-29T01:04:58.506Z,72.06
2019-03-29T01:07:26.932Z,72.03
2019-03-29T01:09:55.322Z,71.73
2019-03-29T01:12:23.703Z,72.20
2019-03-29T01:14:52.119Z,72.28
2019-03-29T01:17:20.520Z,72.03
2019-03-29T01:19:48.924Z,71.90
2019-03-29T01:22:17.328Z,71.89
2019-03-29T01:24:45.756Z,72.10
2019-03-29T01:27:14.141Z,71.69
2019-03-29T01:29:42.554Z,71.75
2019-03-29T01:32:10.953Z,72.07
2019-03-29T01:34:39.442Z,72.00
2019-03-29T01:37:07.920Z,72.04
2019-03-29T01:39:36.414Z,71.68
2019-03-29T01:42:04.979Z,71.71
2019-03-29T01:44:33.434Z,71.83
2019-03-29T01:47:01.892Z,71.92
2019-03-29T01:49:30.398Z,71.85
2019-03-29T01:51:58.852Z,71.74
2019-03-29T01:54:27.284Z,71.74
2019-03-29T01:56:55.748Z,71.87
2019-03-29T01:59:24.208Z,71.88
2019-03-29T02:01:52.650Z,71.80
2019-03-29T02:04:21.089Z,71.84
2019-03-29T02:06:49.535Z,71.83
2019-03-29T02:09:17.978Z,71.67
2019-03-29T02:11:46.446Z,71.59
2019-03-29T02:14:14.892Z,71.47
2019-03-29T02:16:43.281Z,71.60
2019-03-29T02:19:11.692Z,71.84
2019-03-29T02:21:40.093Z,72.10
2019-03-29T02:24:08.500Z,72.17
2019-03-29T02:26:36.891Z,72.01
2019-03-29T02:29:05.282Z,72.11
2019-03-29T02:31:33.678Z,71.95
2019-03-29T02:34:02.065Z,71.94
2019-03-29T02:36:30.458Z,72.25
2019-03-29T02:38:59.394Z,72.19
2019-03-29T02:41:27.917Z,71.80
2019-03-29T02:43:56.313Z,71.77
2019-03-29T02:46:25.890Z,71.71
2019-03-29T02:48:54.547Z,71.58
2019-03-29T02:51:22.942Z,71.58
2019-03-29T02:53:51.333Z,71.68
2019-03-29T02:56:19.724Z,71.67
2019-03-29T02:58:48.111Z,71.52
2019-03-29T03:01:16.504Z,71.48
2019-03-29T03:03:44.890Z,71.44
2019-03-29T03:06:13.279Z,71.40
2019-03-29T03:08:41.665Z,71.29
2019-03-29T03:11:10.071Z,71.26
2019-03-29T03:13:38.440Z,71.35
2019-03-29T03:16:06.826Z,71.56
2019-03-29T03:18:35.219Z,71.36
2019-03-29T03:21:03.686Z,71.33
2019-03-29T03:23:32.073Z,71.31
2019-03-29T03:26:00.471Z,71.25
2019-03-29T03:28:28.857Z,71.23
2019-03-29T03:30:57.256Z,71.37
2019-03-29T03:33:25.660Z,71.62
2019-03-29T03:35:54.034Z,71.73
2019-03-29T03:38:22.424Z,71.46
2019-03-29T03:40:50.815Z,71.38
2019-03-29T03:43:19.216Z,71.29
2019-03-29T03:45:47.584Z,71.23
2019-03-29T03:48:15.987Z,71.45
2019-03-29T03:50:45.109Z,71.47
2019-03-29T03:53:13.493Z,71.43
2019-03-29T03:55:42.778Z,71.30
2019-03-29T03:58:11.936Z,71.43
2019-03-29T04:00:51.929Z,71.42
2019-03-29T04:03:20.692Z,71.49
2019-03-29T04:05:50.158Z,71.48
2019-03-29T04:08:19.486Z,71.74
2019-03-29T04:10:47.908Z,71.82
2019-03-29T04:13:16.293Z,71.82
2019-03-29T04:15:44.752Z,71.85
2019-03-29T04:18:15.756Z,71.80
2019-03-29T04:20:43.278Z,72.24
2019-03-29T04:23:11.773Z,72.13
2019-03-29T04:25:40.156Z,72.08
2019-03-29T04:28:08.548Z,72.16
2019-03-29T04:30:36.960Z,72.22
2019-03-29T04:33:05.355Z,72.64
2019-03-29T04:35:33.718Z,72.55
2019-03-29T04:38:02.149Z,72.50
2019-03-29T04:40:32.036Z,72.43
2019-03-29T04:43:00.447Z,72.34
2019-03-29T04:45:28.846Z,72.18
2019-03-29T04:47:57.286Z,72.37
2019-03-29T04:50:25.667Z,72.33
2019-03-29T04:52:55.028Z,72.68
2019-03-29T04:55:23.461Z,72.77
2019-03-29T04:57:51.854Z,72.56
2019-03-29T05:00:20.309Z,72.68
2019-03-29T05:02:48.691Z,72.64
2019-03-29T05:05:17.180Z,72.65
2019-03-29T05:07:45.587Z,72.83
2019-03-29T05:10:20.952Z,72.75
2019-03-29T05:12:44.205Z,72.65
2019-03-29T05:15:12.956Z,72.56
2019-03-29T05:17:41.416Z,72.72
2019-03-29T05:20:09.959Z,72.80
2019-03-29T05:22:38.359Z,72.65
2019-03-29T05:25:06.823Z,72.50
2019-03-29T05:27:35.255Z,72.33
2019-03-29T05:30:04.475Z,71.89
2019-03-29T05:32:32.953Z,71.85
2019-03-29T05:35:01.360Z,71.74
2019-03-29T05:37:29.789Z,71.80
2019-03-29T05:39:58.172Z,71.73
2019-03-29T05:42:26.647Z,71.78
2019-03-29T05:44:55.085Z,71.68
2019-03-29T05:47:23.505Z,71.61
2019-03-29T05:49:51.904Z,71.38
2019-03-29T05:52:20.305Z,71.04
2019-03-29T05:54:48.686Z,71.08
2019-03-29T05:57:17.077Z,71.04
2019-03-29T05:59:45.467Z,70.68
2019-03-29T06:02:13.936Z,70.74
2019-03-29T06:04:42.376Z,70.38
2019-03-29T06:07:10.767Z,70.03
2019-03-29T06:09:39.155Z,70.36
2019-03-29T06:12:07.537Z,69.90
2019-03-29T06:14:35.928Z,69.88
2019-03-29T06:17:04.328Z,69.22
2019-03-29T06:19:33.175Z,69.00
2019-03-29T06:22:01.564Z,68.61
2019-03-29T06:24:29.978Z,67.50
2019-03-29T06:26:58.363Z,66.58
2019-03-29T06:29:26.758Z,66.55
2019-03-29T06:31:55.162Z,66.42
2019-03-29T06:34:23.714Z,65.38
2019-03-29T06:36:53.321Z,65.56
2019-03-29T06:39:22.660Z,64.64
2019-03-29T06:41:51.047Z,64.58
2019-03-29T06:44:19.451Z,65.00
2019-03-29T06:46:47.836Z,65.27
2019-03-29T06:49:16.307Z,65.41
2019-03-29T06:51:44.727Z,65.47
2019-03-29T06:54:13.092Z,65.29
2019-03-29T06:56:41.631Z,65.18
2019-03-29T06:59:10.095Z,64.81
2019-03-29T07:01:38.775Z,64.66
2019-03-29T07:04:07.183Z,64.55
2019-03-29T07:06:35.571Z,64.44
2019-03-29T07:09:05.651Z,64.37
2019-03-29T07:11:34.041Z,63.81
2019-03-29T07:14:02.440Z,63.18
2019-03-29T07:16:30.830Z,62.85
2019-03-29T07:18:59.232Z,62.77
2019-03-29T07:21:27.617Z,62.41
2019-03-29T07:23:56.017Z,61.57
2019-03-29T07:26:24.407Z,61.65
2019-03-29T07:28:52.799Z,61.63
2019-03-29T07:31:21.196Z,61.21
2019-03-29T07:33:49.587Z,60.90
2019-03-29T07:36:17.983Z,60.46
2019-03-29T07:38:46.376Z,60.79
2019-03-29T07:41:14.761Z,60.81
2019-03-29T07:43:43.141Z,60.31
2019-03-29T07:46:11.544Z,60.03
2019-03-29T07:48:40.460Z,59.89
2019-03-29T07:51:08.942Z,59.74
2019-03-29T07:53:37.328Z,60.28
2019-03-29T07:56:05.712Z,59.64
2019-03-29T07:58:34.301Z,59.45
2019-03-29T08:01:02.669Z,59.03
2019-03-29T08:03:31.050Z,59.02
2019-03-29T08:05:59.434Z,58.80
2019-03-29T08:08:32.297Z,58.72
2019-03-29T08:10:59.140Z,56.84
2019-03-29T08:13:27.687Z,56.30
2019-03-29T08:15:56.059Z,56.76
2019-03-29T08:18:24.446Z,56.97
2019-03-29T08:20:52.825Z,57.02
2019-03-29T08:23:21.216Z,56.97
2019-03-29T08:25:49.610Z,57.09
2019-03-29T08:28:17.996Z,56.12
2019-03-29T08:30:46.388Z,56.34
2019-03-29T08:33:14.778Z,55.73
2019-03-29T08:35:43.199Z,54.93
2019-03-29T08:38:11.582Z,55.54
2019-03-29T08:40:39.979Z,55.65
2019-03-29T08:43:08.376Z,55.38
2019-03-29T08:45:36.777Z,54.80
2019-03-29T08:48:06.882Z,54.86
2019-03-29T08:50:35.324Z,55.27
2019-03-29T08:53:03.780Z,54.88
2019-03-29T08:55:44.998Z,54.78
2019-03-29T08:58:02.489Z,54.33
2019-03-29T09:00:32.187Z,54.31
2019-03-29T09:03:00.854Z,53.90
2019-03-29T09:05:29.267Z,53.89
2019-03-29T09:07:57.801Z,53.60
2019-03-29T09:10:27.340Z,53.67
2019-03-29T09:12:55.809Z,52.81
2019-03-29T09:15:24.268Z,53.19
2019-03-29T09:17:52.688Z,52.83
2019-03-29T09:20:21.162Z,52.25
2019-03-29T09:22:49.592Z,52.64
2019-03-29T09:25:20.876Z,52.25
2019-03-29T09:27:48.194Z,52.38
2019-03-29T09:30:16.700Z,52.85
2019-03-29T09:32:45.100Z,52.23
2019-03-29T09:35:13.618Z,51.29
2019-03-29T09:37:42.000Z,50.71
2019-03-29T09:40:13.753Z,50.49
2019-03-29T09:42:40.808Z,51.54
2019-03-29T09:45:09.299Z,51.09
2019-03-29T09:47:40.623Z,51.08
2019-03-29T09:50:10.397Z,50.33
2019-03-29T09:52:38.514Z,50.55
2019-03-29T09:55:07.567Z,49.93
2019-03-29T09:57:38.131Z,50.50
2019-03-29T10:00:19.094Z,50.59
2019-03-29T10:02:38.997Z,49.78
2019-03-29T10:05:07.658Z,48.16
2019-03-29T10:07:36.043Z,48.94
2019-03-29T10:10:05.585Z,49.29
2019-03-29T10:12:43.330Z,49.20
2019-03-29T10:15:05.673Z,47.62
2019-03-29T10:17:34.020Z,46.95
2019-03-29T10:20:02.475Z,47.46
2019-03-29T10:22:30.875Z,47.62
2019-03-29T10:25:02.126Z,48.05
2019-03-29T10:27:29.398Z,46.99
2019-03-29T10:29:57.832Z,48.29
2019-03-29T10:32:26.303Z,47.87
2019-03-29T10:34:54.687Z,46.42
2019-03-29T10:37:23.079Z,45.86
2019-03-29T10:39:51.469Z,46.58
2019-03-29T10:42:19.917Z,46.73
2019-03-29T10:44:49.588Z,47.37
2019-03-29T10:47:17.995Z,47.23
2019-03-29T10:49:46.406Z,47.31
2019-03-29T10:52:14.829Z,46.21
2019-03-29T10:54:43.246Z,46.47
2019-03-29T10:57:11.659Z,46.22
2019-03-29T10:59:40.072Z,46.69
2019-03-29T11:02:08.554Z,46.38
2019-03-29T11:04:36.975Z,46.71
2019-03-29T11:07:05.444Z,46.10
2019-03-29T11:09:36.873Z,44.99
2019-03-29T11:12:03.956Z,46.23
2019-03-29T11:14:32.352Z,45.46
2019-03-29T11:17:00.820Z,45.76
2019-03-29T11:19:29.226Z,45.30
2019-03-29T11:21:57.621Z,44.75
2019-03-29T11:24:26.032Z,45.32
2019-03-29T11:26:54.442Z,45.24
2019-03-29T11:29:22.855Z,45.34
2019-03-29T11:31:51.281Z,45.19
2019-03-29T11:34:21.089Z,45.09
2019-03-29T11:36:52.670Z,44.42
2019-03-29T11:39:19.939Z,44.53
2019-03-29T11:41:48.326Z,44.01
2019-03-29T11:44:16.735Z,44.57
2019-03-29T11:46:45.108Z,44.37
2019-03-29T11:49:13.499Z,43.89
2019-03-29T11:51:41.981Z,44.23
2019-03-29T11:54:10.408Z,44.19
2019-03-29T11:56:38.794Z,43.56
2019-03-29T11:59:07.215Z,43.00
2019-03-29T12:01:35.645Z,43.63
2019-03-29T12:04:04.034Z,43.41
2019-03-29T12:06:32.426Z,43.79
2019-03-29T12:09:00.909Z,43.60
2019-03-29T12:11:29.304Z,43.54
2019-03-29T12:13:57.706Z,43.79
2019-03-29T12:16:26.085Z,43.42
2019-03-29T12:18:54.478Z,42.83
2019-03-29T12:21:22.942Z,42.83
2019-03-29T12:23:51.340Z,43.10
2019-03-29T12:26:19.732Z,42.89
2019-03-29T12:28:48.213Z,43.10
2019-03-29T12:31:16.734Z,43.54
2019-03-29T12:33:45.060Z,42.72
2019-03-29T12:36:13.492Z,42.97
2019-03-29T12:38:41.885Z,42.62
2019-03-29T12:41:10.289Z,42.62
2019-03-29T12:43:38.676Z,42.46
2019-03-29T12:46:07.066Z,43.01
2019-03-29T12:48:35.462Z,42.56
2019-03-29T12:51:03.914Z,42.21
2019-03-29T12:53:32.304Z,41.60
2019-03-29T12:56:00.687Z,42.29
2019-03-29T12:58:29.125Z,42.83
2019-03-29T13:00:58.561Z,43.14
2019-03-29T13:03:26.962Z,42.46
2019-03-29T13:05:55.355Z,43.23
2019-03-29T13:08:23.742Z,43.50
2019-03-29T13:10:52.548Z,42.90
2019-03-29T13:13:20.947Z,42.18
2019-03-29T13:15:49.343Z,42.63
2019-03-29T13:18:17.739Z,42.00
2019-03-29T13:20:46.204Z,41.94
2019-03-29T13:23:14.583Z,42.06
2019-03-29T13:25:42.979Z,41.65
2019-03-29T13:28:11.373Z,42.22
2019-03-29T13:30:39.755Z,42.35
2019-03-29T13:33:08.147Z,42.52
2019-03-29T13:35:36.544Z,42.56
2019-03-29T13:38:05.008Z,42.55
2019-03-29T13:40:33.405Z,42.25
2019-03-29T13:43:01.806Z,42.02
2019-03-29T13:45:30.346Z,41.80
2019-03-29T13:47:58.810Z,42.24
2019-03-29T13:50:27.300Z,42.05
2019-03-29T13:52:55.677Z,41.50
2019-03-29T13:55:24.073Z,41.00
2019-03-29T13:57:52.507Z,41.58
2019-03-29T14:00:20.893Z,42.17
2019-03-29T14:02:54.441Z,42.33
2019-03-29T14:05:23.823Z,42.31
2019-03-29T14:07:53.745Z,41.52
2019-03-29T14:10:22.135Z,41.29
2019-03-29T14:12:50.531Z,41.39
2019-03-29T14:15:21.018Z,40.91
2019-03-29T14:17:49.328Z,41.25
2019-03-29T14:20:25.171Z,41.27
2019-03-29T14:22:58.506Z,41.70
2019-03-29T14:25:27.080Z,41.60
2019-03-29T14:27:59.712Z,42.06
2019-03-29T14:30:28.236Z,41.80
2019-03-29T14:33:00.950Z,41.02
2019-03-29T14:35:33.702Z,41.43
2019-03-29T14:38:05.363Z,41.87
2019-03-29T14:40:37.874Z,42.13
2019-03-29T14:43:10.461Z,41.58
2019-03-29T14:45:40.168Z,41.41
2019-03-29T14:48:12.716Z,41.71
2019-03-29T14:50:41.217Z,41.15
2019-03-29T14:53:12.771Z,41.83
2019-03-29T14:55:43.514Z,41.92
2019-03-29T14:58:16.160Z,41.66
2019-03-29T15:00:48.414Z,41.67
2019-03-29T15:03:15.484Z,42.02
2019-03-29T15:05:45.611Z,41.98
2019-03-29T15:08:16.414Z,42.07
2019-03-29T15:10:49.857Z,41.81
2019-03-29T15:13:22.004Z,41.62
2019-03-29T15:15:53.357Z,42.11
2019-03-29T15:18:20.646Z,41.67
2019-03-29T15:20:53.801Z,41.53
2019-03-29T15:23:19.163Z,41.79
2019-03-29T15:25:47.552Z,41.86
2019-03-29T15:28:15.939Z,42.22
2019-03-29T15:30:44.335Z,42.62
2019-03-29T15:33:12.724Z,42.52
2019-03-29T15:35:41.105Z,42.49
2019-03-29T15:38:09.562Z,42.12
2019-03-29T15:40:38.014Z,41.71
2019-03-29T15:43:06.420Z,41.80
2019-03-29T15:45:34.804Z,41.18
2019-03-29T15:48:03.199Z,41.77
2019-03-29T15:50:31.594Z,41.62
2019-03-29T15:52:59.984Z,41.83
2019-03-29T15:55:28.378Z,41.67
2019-03-29T15:57:56.767Z,41.96
2019-03-29T16:00:25.165Z,42.36
2019-03-29T16:02:53.561Z,42.30
2019-03-29T16:05:21.940Z,42.21
2019-03-29T16:07:50.332Z,42.42
2019-03-29T16:10:18.724Z,42.55
2019-03-29T16:12:47.123Z,42.71
2019-03-29T16:15:15.522Z,42.86
2019-03-29T16:17:43.924Z,42.18
2019-03-29T16:20:12.458Z,42.00
2019-03-29T16:22:40.857Z,41.96
2019-03-29T16:25:09.394Z,42.00
2019-03-29T16:27:37.845Z,42.45
2019-03-29T16:30:07.163Z,42.87
2019-03-29T16:32:36.313Z,42.78
2019-03-29T16:35:06.846Z,43.06
2019-03-29T16:37:35.233Z,42.89
2019-03-29T16:40:05.923Z,43.19
2019-03-29T16:42:34.314Z,43.14
2019-03-29T16:45:02.708Z,43.04
2019-03-29T16:47:31.119Z,43.23
2019-03-29T16:49:59.520Z,43.04
2019-03-29T16:52:27.894Z,43.03
2019-03-29T16:54:56.306Z,42.88
2019-03-29T16:57:24.697Z,43.10
2019-03-29T16:59:53.085Z,43.20
2019-03-29T17:02:21.471Z,43.18
2019-03-29T17:04:49.932Z,43.47
2019-03-29T17:07:18.348Z,43.71
2019-03-29T17:09:46.746Z,44.03
2019-03-29T17:12:15.189Z,44.13
2019-03-29T17:14:43.604Z,44.26
2019-03-29T17:17:11.960Z,44.60
2019-03-29T17:19:40.359Z,44.65
2019-03-29T17:22:08.752Z,44.79
2019-03-29T17:24:37.144Z,44.95
2019-03-29T17:27:05.533Z,45.19
2019-03-29T17:29:33.971Z,45.27
2019-03-29T17:32:02.355Z,45.38
2019-03-29T17:34:30.739Z,45.34
2019-03-29T17:37:01.676Z,45.78
2019-03-29T17:39:30.072Z,45.85
2019-03-29T17:41:58.468Z,46.19
2019-03-29T17:44:26.862Z,46.23
2019-03-29T17:46:55.247Z,46.10
2019-03-29T17:49:23.635Z,46.21
2019-03-29T17:51:52.022Z,46.23
2019-03-29T17:54:20.445Z,46.30
2019-03-29T17:56:48.854Z,46.48
2019-03-29T17:59:17.250Z,46.61
2019-03-29T18:01:45.642Z,46.66
2019-03-29T18:04:14.029Z,47.00
2019-03-29T18:06:42.418Z,47.25
2019-03-29T18:09:10.815Z,47.08
2019-03-29T18:11:39.210Z,46.88
2019-03-29T18:14:07.631Z,46.85
2019-03-29T18:16:36.022Z,47.00
2019-03-29T18:19:04.417Z,47.12
2019-03-29T18:21:32.814Z,47.38
2019-03-29T18:24:01.210Z,47.63
2019-03-29T18:26:29.601Z,47.73
2019-03-29T18:28:58.006Z,47.92
2019-03-29T18:31:26.416Z,48.25
2019-03-29T18:33:54.958Z,48.28
2019-03-29T18:36:23.400Z,48.48
2019-03-29T18:38:51.969Z,48.42
2019-03-29T18:41:20.362Z,48.58
2019-03-29T18:43:48.764Z,48.70
2019-03-29T18:46:17.219Z,48.75
2019-03-29T18:48:45.629Z,48.84
2019-03-29T18:51:14.072Z,49.07
2019-03-29T18:53:42.476Z,49.21
2019-03-29T18:56:10.855Z,49.44
2019-03-29T18:58:39.330Z,49.58
2019-03-29T19:01:07.652Z,50.01
2019-03-29T19:03:36.053Z,50.20
2019-03-29T19:06:04.481Z,50.19
2019-03-29T19:08:32.885Z,50.05
2019-03-29T19:11:01.286Z,49.84
2019-03-29T19:13:29.679Z,50.03
2019-03-29T19:15:58.069Z,50.01
2019-03-29T19:18:26.461Z,50.06
2019-03-29T19:20:54.866Z,50.32
2019-03-29T19:23:23.263Z,50.56
2019-03-29T19:25:51.666Z,50.71
2019-03-29T19:28:20.072Z,50.84
2019-03-29T19:30:48.453Z,50.98
2019-03-29T19:33:16.846Z,51.03
2019-03-29T19:35:45.245Z,51.32
2019-03-29T19:38:13.634Z,51.70
2019-03-29T19:40:42.034Z,51.83
2019-03-29T19:43:10.501Z,51.97
2019-03-29T19:45:38.954Z,52.01
2019-03-29T19:48:07.357Z,52.14
2019-03-29T19:50:35.753Z,52.39
2019-03-29T19:53:04.197Z,52.61
2019-03-29T19:55:32.557Z,52.94
2019-03-29T19:58:01.008Z,53.20
2019-03-29T20:00:32.455Z,53.44
2019-03-29T20:03:00.996Z,53.66
2019-03-29T20:05:29.498Z,53.79
2019-03-29T20:07:58.057Z,53.88
2019-03-29T20:10:26.598Z,54.04
2019-03-29T20:12:54.972Z,54.09
2019-03-29T20:15:23.513Z,54.20
2019-03-29T20:17:52.168Z,54.38
2019-03-29T20:20:24.966Z,54.54
2019-03-29T20:22:54.887Z,54.67
2019-03-29T20:25:24.177Z,54.97
2019-03-29T20:27:52.819Z,55.21
2019-03-29T20:30:21.457Z,55.40
2019-03-29T20:32:49.839Z,55.55
2019-03-29T20:35:18.249Z,55.69
2019-03-29T20:37:46.642Z,55.76
2019-03-29T20:40:15.275Z,56.09
2019-03-29T20:42:43.679Z,56.08
2019-03-29T20:45:12.136Z,56.07
2019-03-29T20:47:42.272Z,56.09
2019-03-29T20:50:11.072Z,56.21
2019-03-29T20:52:39.529Z,56.55
2019-03-29T20:55:08.397Z,56.79
2019-03-29T20:57:37.615Z,57.13
2019-03-29T21:00:07.963Z,56.99
2019-03-29T21:02:36.362Z,57.04
2019-03-29T21:05:06.621Z,57.13
2019-03-29T21:07:35.107Z,57.24
2019-03-29T21:10:04.809Z,57.38
2019-03-29T21:12:33.211Z,57.39
2019-03-29T21:15:01.601Z,57.33
2019-03-29T21:17:29.987Z,57.40
2019-03-29T21:19:58.379Z,57.55
2019-03-29T21:22:26.777Z,57.85
2019-03-29T21:24:55.178Z,58.12
2019-03-29T21:27:23.581Z,58.36
2019-03-29T21:29:51.967Z,58.66
2019-03-29T21:32:20.356Z,58.69
2019-03-29T21:34:48.739Z,58.64
2019-03-29T21:37:17.126Z,58.82
2019-03-29T21:39:45.513Z,58.99
2019-03-29T21:42:20.823Z,59.24
2019-03-29T21:44:49.217Z,59.01
2019-03-29T21:47:17.675Z,59.19
2019-03-29T21:49:46.137Z,59.11
2019-03-29T21:52:14.461Z,59.00
2019-03-29T21:54:42.853Z,59.08
2019-03-29T21:57:11.403Z,59.15
2019-03-29T21:59:39.781Z,59.37
2019-03-29T22:02:08.177Z,59.54
2019-03-29T22:04:37.566Z,59.75
2019-03-29T22:07:05.976Z,59.89
2019-03-29T22:09:37.072Z,59.98
2019-03-29T22:12:04.556Z,60.12
2019-03-29T22:14:32.975Z,60.22
2019-03-29T22:17:01.395Z,60.48
2019-03-29T22:19:30.785Z,60.61
2019-03-29T22:21:59.188Z,60.60
2019-03-29T22:24:27.583Z,60.67
2019-03-29T22:26:55.964Z,60.93
2019-03-29T22:29:24.367Z,61.01
2019-03-29T22:31:52.769Z,61.08
2019-03-29T22:34:21.158Z,61.31
2019-03-29T22:36:49.543Z,61.30
2019-03-29T22:39:17.934Z,61.45
2019-03-29T22:41:46.340Z,61.59
2019-03-29T22:44:14.736Z,62.02
2019-03-29T22:46:43.137Z,62.02
2019-03-29T22:49:11.614Z,62.17
2019-03-29T22:51:40.013Z,62.33
2019-03-29T22:54:08.400Z,62.15
2019-03-29T22:56:36.791Z,62.54
2019-03-29T22:59:05.240Z,62.81
2019-03-29T23:01:36.689Z,62.94
2019-03-29T23:04:05.155Z,62.90
2019-03-29T23:06:33.592Z,63.14
2019-03-29T23:09:01.975Z,63.20
2019-03-29T23:11:30.384Z,63.23
2019-03-29T23:13:58.770Z,63.41
2019-03-29T23:16:30.241Z,63.49
2019-03-29T23:19:06.251Z,63.57
2019-03-29T23:21:27.408Z,63.64
2019-03-29T23:23:55.799Z,63.57
2019-03-29T23:26:24.187Z,63.55
2019-03-29T23:28:52.578Z,63.62
2019-03-29T23:31:20.963Z,63.69
2019-03-29T23:33:49.358Z,63.96
2019-03-29T23:36:17.744Z,63.98
2019-03-29T23:38:46.138Z,63.94
2019-03-29T23:41:14.524Z,64.06
2019-03-29T23:43:42.924Z,64.31
2019-03-29T23:46:11.304Z,64.52
2019-03-29T23:48:39.700Z,64.50
2019-03-29T23:51:08.093Z,64.62
2019-03-29T23:53:36.487Z,64.65
2019-03-29T23:56:04.947Z,64.63
2019-03-29T23:58:34.580Z,64.73
